Time;durP1;ratioP1;P1;durP2;ratioP2;P2;SDS_P1;SDS_P2;PMS_P1;PMS_P2;Temp;Humidity;BMP_temperature;BMP_pressure;BME280_temperature;BME280_humidity;BME280_pressure;Samples;Min_cycle;Max_cycle;Signal;HPM_P1;HPM_P2
2022/01/24 00:01:52;;;;;;;14.07;12.20;;;;;;;6.01;95.83;103403.09;5054296;28;20484;-47
2022/01/24 00:04:21;;;;;;;14.83;13.27;;;;;;;5.96;95.48;103397.28;5054237;28;20527;-47
2022/01/24 00:06:49;;;;;;;14.70;13.17;;;;;;;5.96;95.43;103407.88;5054365;28;20459;-47
2022/01/24 00:09:17;;;;;;;14.10;11.47;;;;;;;5.98;95.29;103403.31;5053609;28;20463;-46
2022/01/24 00:11:49;;;;;;;15.03;11.30;;;;;;;5.98;94.90;103399.81;5054572;28;21002;-45
2022/01/24 00:17:00;;;;;;;14.63;13.00;;;;;;;6.02;95.41;103401.31;5052142;28;20440;-45
2022/01/24 00:27:47;;;;;;;14.90;13.30;;;;;;;6.03;96.25;103384.47;5053363;28;20431;-45
2022/01/24 00:30:16;;;;;;;14.80;13.03;;;;;;;6.03;95.79;103395.88;5053282;28;20434;-42
2022/01/24 00:32:43;;;;;;;14.10;12.77;;;;;;;6.03;95.41;103389.78;5035957;28;20448;-44
2022/01/24 00:35:13;;;;;;;19.60;13.63;;;;;;;6.00;96.35;103398.75;5039036;28;20458;-46
2022/01/24 00:37:41;;;;;;;17.57;12.70;;;;;;;6.01;95.33;103391.66;5036859;28;20432;-43
2022/01/24 00:40:11;;;;;;;14.07;12.67;;;;;;;5.96;95.93;103388.47;5035698;28;20557;-48
2022/01/24 00:42:49;;;;;;;14.70;13.30;;;;;;;5.96;95.77;103381.38;5036207;28;20453;-45
2022/01/24 00:45:27;;;;;;;16.20;13.70;;;;;;;5.94;95.54;103379.78;5040381;28;20431;-44
2022/01/24 00:48:26;;;;;;;14.03;12.87;;;;;;;5.92;95.69;103373.72;5036503;28;20526;-47
2022/01/24 00:54:00;;;;;;;17.87;13.90;;;;;;;5.86;95.23;103377.63;5036340;28;20812;-47
2022/01/24 00:56:27;;;;;;;14.97;13.70;;;;;;;5.85;94.42;103375.97;5034442;28;20443;-44
2022/01/24 00:58:55;;;;;;;16.47;14.77;;;;;;;5.84;94.75;103368.06;5036056;28;21062;-43
2022/01/24 01:01:23;;;;;;;19.13;14.73;;;;;;;5.83;94.48;103377.81;5039866;28;20474;-47
2022/01/24 01:03:50;;;;;;;14.37;12.97;;;;;;;5.86;94.33;103377.63;5053212;28;20431;-45
2022/01/24 01:06:19;;;;;;;17.57;15.60;;;;;;;5.85;94.57;103375.06;5053115;28;20427;-44
2022/01/24 01:19:51;;;;;;;23.03;18.70;;;;;;;5.77;93.56;103380.84;5052390;28;20992;-45
2022/01/24 01:22:20;;;;;;;24.93;19.07;;;;;;;5.76;93.46;103375.69;5052912;28;20835;-49
2022/01/24 01:24:52;;;;;;;27.63;20.77;;;;;;;5.74;93.16;103370.47;5052949;28;20443;-46
2022/01/24 01:27:24;;;;;;;28.47;19.60;;;;;;;5.73;93.23;103371.44;5052630;28;21023;-44
2022/01/24 01:29:58;;;;;;;26.40;19.47;;;;;;;5.74;92.82;103364.31;5052321;28;20456;-47
2022/01/24 01:32:43;;;;;;;27.70;20.60;;;;;;;5.71;92.90;103361.88;5052621;28;20447;-44
2022/01/24 01:35:31;;;;;;;24.53;18.73;;;;;;;5.67;92.67;103369.19;5052595;28;20435;-46
2022/01/24 01:38:23;;;;;;;29.70;21.73;;;;;;;5.68;91.69;103375.31;5051784;28;20434;-48
2022/01/24 01:54:56;;;;;;;24.67;19.40;;;;;;;5.69;91.93;103380.53;5052032;28;20446;-45
2022/01/24 01:57:24;;;;;;;22.27;19.07;;;;;;;5.73;91.63;103375.88;5052117;28;20441;-44
2022/01/24 01:59:52;;;;;;;29.63;20.53;;;;;;;5.73;91.81;103376.72;5051828;28;20474;-44
2022/01/24 02:02:19;;;;;;;25.97;20.17;;;;;;;5.74;92.47;103383.72;5051696;28;20479;-46
2022/01/24 02:04:47;;;;;;;28.33;20.93;;;;;;;5.75;93.17;103369.53;5051978;28;20435;-45
2022/01/24 02:07:16;;;;;;;28.43;20.03;;;;;;;5.77;93.18;103369.41;5051788;28;20435;-44
2022/01/24 02:09:46;;;;;;;27.13;19.83;;;;;;;5.76;93.16;103371.22;5051756;28;20481;-47
2022/01/24 02:12:17;;;;;;;24.23;19.37;;;;;;;5.77;93.22;103378.22;5051874;28;20457;-46
2022/01/24 02:14:49;;;;;;;23.70;18.67;;;;;;;5.79;93.10;103363.09;5050327;28;20439;-45
2022/01/24 02:17:25;;;;;;;24.93;19.13;;;;;;;5.82;93.11;103368.19;5031132;28;20444;-46
2022/01/24 02:20:08;;;;;;;21.73;17.30;;;;;;;5.78;93.88;103377.28;5035516;28;20467;-45
2022/01/24 02:25:27;;;;;;;25.87;18.30;;;;;;;5.76;94.35;103365.94;5033589;28;20424;-46
2022/01/24 02:27:58;;;;;;;25.60;17.03;;;;;;;5.75;94.62;103368.69;5034134;28;20432;-45
2022/01/24 02:30:48;;;;;;;25.20;17.47;;;;;;;5.75;94.85;103358.09;5039929;28;20432;-47
2022/01/24 02:33:16;;;;;;;22.60;17.87;;;;;;;5.74;94.85;103354.59;5031953;28;21000;-44
2022/01/24 02:35:44;;;;;;;20.93;17.80;;;;;;;5.75;94.50;103363.38;5033053;28;20429;-45
2022/01/24 02:38:22;;;;;;;23.93;18.07;;;;;;;5.73;94.87;103363.50;5032959;28;20463;-44
2022/01/24 02:49:02;;;;;;;23.23;16.43;;;;;;;5.78;95.07;103349.94;5050823;28;20490;-44
2022/01/24 02:51:46;;;;;;;18.47;16.13;;;;;;;5.78;94.61;103356.09;5051604;28;20447;-47
2022/01/24 02:54:23;;;;;;;18.00;14.77;;;;;;;5.80;94.72;103351.53;5051626;28;20811;-47
2022/01/24 02:56:51;;;;;;;19.60;16.43;;;;;;;5.79;95.68;103357.78;5051522;28;20437;-47
2022/01/24 02:59:19;;;;;;;20.63;15.87;;;;;;;5.78;95.30;103350.78;5050670;28;20849;-43
2022/01/24 03:01:47;;;;;;;17.20;15.27;;;;;;;5.80;95.39;103358.63;5053533;28;20485;-45
2022/01/24 03:04:16;;;;;;;17.57;14.93;;;;;;;5.78;95.59;103357.88;5055534;28;20442;-43
2022/01/24 03:06:43;;;;;;;16.57;14.87;;;;;;;5.78;95.46;103353.44;5055428;28;20441;-47
2022/01/24 03:09:12;;;;;;;16.87;15.10;;;;;;;5.76;95.74;103344.75;5054718;28;20467;-42
2022/01/24 03:11:59;;;;;;;17.67;15.80;;;;;;;5.77;95.09;103340.28;5055063;28;20452;-45
2022/01/24 03:14:29;;;;;;;16.80;15.00;;;;;;;5.74;95.93;103349.28;5055372;28;20434;-45
2022/01/24 03:16:57;;;;;;;17.00;15.40;;;;;;;5.77;95.88;103345.56;5042012;28;20423;-47
2022/01/24 03:19:25;;;;;;;16.67;15.03;;;;;;;5.75;95.85;103339.53;5042840;28;20463;-46
2022/01/24 03:21:53;;;;;;;17.97;16.13;;;;;;;5.75;95.61;103342.19;5036385;28;20480;-46
2022/01/24 03:24:21;;;;;;;17.23;15.40;;;;;;;5.75;94.95;103343.06;5038474;28;20816;-45
2022/01/24 03:26:50;;;;;;;15.97;14.27;;;;;;;5.76;95.41;103338.59;5034587;28;20987;-49
2022/01/24 03:29:18;;;;;;;15.90;14.13;;;;;;;5.73;95.29;103352.91;5035854;28;20835;-49
2022/01/24 03:31:46;;;;;;;15.13;13.73;;;;;;;5.72;95.89;103348.56;5037888;28;20976;-44
2022/01/24 03:34:15;;;;;;;16.90;15.00;;;;;;;5.69;96.12;103348.75;5035918;28;20428;-48
2022/01/24 03:36:43;;;;;;;16.90;15.20;;;;;;;5.71;95.59;103344.19;5036161;28;20797;-44
2022/01/24 03:39:12;;;;;;;19.80;15.37;;;;;;;5.67;95.70;103344.50;5036349;28;20546;-44
2022/01/24 03:41:40;;;;;;;16.00;14.40;;;;;;;5.69;95.97;103345.25;5036598;28;20475;-47
2022/01/24 03:44:12;;;;;;;19.77;17.67;;;;;;;5.69;95.64;103347.91;5036566;28;20925;-45
2022/01/24 03:47:01;;;;;;;16.13;14.17;;;;;;;5.61;96.16;103343.13;5049990;28;20466;-45
2022/01/24 03:49:48;;;;;;;16.27;14.60;;;;;;;5.63;95.31;103337.72;5034018;28;20475;-44
2022/01/24 03:52:18;;;;;;;18.90;16.27;;;;;;;5.63;96.20;103333.28;5034698;28;20444;-45
2022/01/24 03:54:47;;;;;;;16.93;15.43;;;;;;;5.61;96.09;103337.84;5034581;28;20804;-44
2022/01/24 03:57:18;;;;;;;16.53;14.90;;;;;;;5.59;95.60;103332.63;5034291;28;20432;-48
2022/01/24 03:59:47;;;;;;;16.87;15.07;;;;;;;5.61;95.21;103331.69;5034032;28;20480;-47
2022/01/24 04:02:17;;;;;;;15.40;13.93;;;;;;;5.59;96.26;103327.31;5034251;28;20480;-45
2022/01/24 04:04:44;;;;;;;16.63;15.20;;;;;;;5.58;95.68;103330.09;5034583;28;20802;-45
2022/01/24 04:07:12;;;;;;;16.80;15.40;;;;;;;5.56;96.09;103326.69;5034089;28;20922;-43
2022/01/24 04:09:41;;;;;;;16.80;15.10;;;;;;;5.54;96.08;103326.78;5033816;28;20472;-46
2022/01/24 04:12:10;;;;;;;16.87;15.37;;;;;;;5.56;95.60;103334.63;5033522;28;20441;-44
2022/01/24 04:14:42;;;;;;;17.10;15.33;;;;;;;5.58;95.97;103341.50;5034071;28;20443;-49
2022/01/24 04:17:24;;;;;;;20.60;15.20;;;;;;;5.59;96.09;103343.22;5034159;28;20436;-45
2022/01/24 04:22:48;;;;;;;15.70;14.40;;;;;;;5.62;96.18;103326.28;5034140;28;20487;-46
2022/01/24 04:25:16;;;;;;;19.43;16.40;;;;;;;5.61;95.51;103335.19;5033974;28;20428;-47
2022/01/24 04:27:44;;;;;;;16.50;14.53;;;;;;;5.63;95.87;103333.28;5033745;28;20439;-45
2022/01/24 04:30:12;;;;;;;16.63;15.00;;;;;;;5.63;96.09;103337.72;5033681;28;20810;-44
2022/01/24 04:32:42;;;;;;;17.13;15.33;;;;;;;5.63;96.16;103343.00;5033619;28;20455;-44
2022/01/24 04:35:09;;;;;;;17.47;15.47;;;;;;;5.58;96.24;103346.78;5034076;28;20438;-47
2022/01/24 04:37:37;;;;;;;17.07;15.40;;;;;;;5.61;96.34;103340.47;5033730;28;20439;-47
2022/01/24 04:40:06;;;;;;;15.57;14.07;;;;;;;5.57;95.47;103338.97;5033395;28;20468;-46
2022/01/24 04:42:43;;;;;;;15.80;14.37;;;;;;;5.61;95.90;103342.28;5033640;28;20848;-48
2022/01/24 04:51:05;;;;;;;16.10;14.70;;;;;;;5.61;96.04;103332.53;5053222;28;20455;-50
2022/01/24 04:54:03;;;;;;;16.90;15.17;;;;;;;5.59;95.83;103324.69;5053348;28;20438;-44
2022/01/24 04:56:31;;;;;;;16.17;14.37;;;;;;;5.59;96.38;103335.28;5053288;28;21125;-48
2022/01/24 04:58:59;;;;;;;15.10;13.80;;;;;;;5.64;95.94;103334.97;5052980;28;20463;-47
2022/01/24 05:01:26;;;;;;;16.00;14.33;;;;;;;5.61;95.69;103339.63;5053229;28;20451;-48
2022/01/24 05:03:55;;;;;;;17.43;15.87;;;;;;;5.62;95.81;103331.56;5053078;28;20478;-45
2022/01/24 05:06:23;;;;;;;15.83;14.20;;;;;;;5.65;95.88;103336.66;5053328;28;20432;-44
2022/01/24 05:08:50;;;;;;;15.33;13.83;;;;;;;5.64;96.51;103334.13;5052335;28;20467;-45
2022/01/24 05:11:24;;;;;;;16.43;14.40;;;;;;;5.66;96.03;103333.06;5053118;28;20431;-49
2022/01/24 05:24:53;;;;;;;17.17;15.37;;;;;;;5.64;97.06;103344.72;5052541;28;20442;-48
2022/01/24 05:27:21;;;;;;;16.37;14.67;;;;;;;5.62;97.22;103341.31;5052624;28;20917;-45
2022/01/24 05:29:49;;;;;;;16.17;14.70;;;;;;;5.64;96.64;103347.38;5049134;28;20486;-45
2022/01/24 05:32:16;;;;;;;16.17;14.70;;;;;;;5.62;97.04;103347.44;5052416;28;20447;-45
2022/01/24 05:34:45;;;;;;;16.07;14.50;;;;;;;5.62;97.02;103347.44;5052593;28;20435;-48
2022/01/24 05:37:13;;;;;;;17.70;15.90;;;;;;;5.60;96.05;103341.41;5052274;28;20435;-43
2022/01/24 05:39:40;;;;;;;15.37;14.13;;;;;;;5.62;96.88;103336.00;5052095;28;20468;-45
2022/01/24 05:42:08;;;;;;;16.70;15.17;;;;;;;5.62;96.67;103341.31;5052408;28;20452;-47
2022/01/24 05:44:36;;;;;;;16.90;15.30;;;;;;;5.59;96.58;103334.41;5052096;28;20936;-43
2022/01/24 05:47:04;;;;;;;16.07;14.67;;;;;;;5.64;96.69;103342.91;5052430;28;20440;-44
2022/01/24 05:49:32;;;;;;;16.47;14.90;;;;;;;5.57;96.53;103341.63;5051630;28;20466;-47
2022/01/24 05:52:02;;;;;;;17.50;15.17;;;;;;;5.55;96.81;103346.19;5052192;28;20454;-50
2022/01/24 05:54:31;;;;;;;16.87;15.10;;;;;;;5.56;96.50;103345.19;5052677;28;20449;-45
2022/01/24 05:56:58;;;;;;;15.67;14.47;;;;;;;5.55;96.34;103347.00;5052267;28;20435;-47
2022/01/24 05:59:26;;;;;;;17.33;15.27;;;;;;;5.53;96.15;103342.75;5051649;28;20835;-47
2022/01/24 06:01:53;;;;;;;15.60;14.33;;;;;;;5.53;95.88;103342.75;5051878;28;20467;-50
2022/01/24 06:04:21;;;;;;;16.17;14.67;;;;;;;5.52;95.93;103341.94;5051955;28;20485;-43
2022/01/24 06:06:49;;;;;;;16.13;14.63;;;;;;;5.54;96.39;103347.13;5051931;28;20438;-45
2022/01/24 06:09:18;;;;;;;17.53;15.83;;;;;;;5.51;96.43;103344.66;5051623;28;20456;-47
2022/01/24 06:11:45;;;;;;;18.53;14.97;;;;;;;5.55;95.88;103338.22;5052431;28;21173;-47
2022/01/24 06:14:13;;;;;;;16.43;15.00;;;;;;;5.52;96.36;103352.53;5051992;28;20435;-47
2022/01/24 06:16:41;;;;;;;17.20;15.40;;;;;;;5.52;96.67;103344.59;5052006;28;20431;-48
2022/01/24 06:19:09;;;;;;;18.13;16.20;;;;;;;5.51;96.81;103353.47;5051097;28;20498;-49
2022/01/24 06:21:37;;;;;;;18.03;16.23;;;;;;;5.49;96.32;103338.63;5052117;28;20443;-45
2022/01/24 06:24:05;;;;;;;18.70;16.67;;;;;;;5.47;96.29;103344.00;5051873;28;20861;-46
2022/01/24 06:26:34;;;;;;;16.83;15.33;;;;;;;5.50;96.69;103343.81;5051927;28;20427;-46
2022/01/24 06:29:02;;;;;;;17.77;16.07;;;;;;;5.50;96.18;103341.16;5051234;28;20461;-46
2022/01/24 06:31:30;;;;;;;16.67;15.27;;;;;;;5.51;96.36;103344.66;5051800;28;20459;-47
2022/01/24 06:33:58;;;;;;;18.30;16.80;;;;;;;5.51;96.52;103349.97;5051783;28;20881;-49
2022/01/24 06:36:26;;;;;;;19.17;17.30;;;;;;;5.51;96.26;103353.47;5051379;28;20419;-50
2022/01/24 06:38:54;;;;;;;17.13;15.73;;;;;;;5.48;96.97;103351.00;5051137;28;20467;-50
2022/01/24 06:41:27;;;;;;;18.57;16.87;;;;;;;5.50;96.72;103358.84;5051666;28;20439;-49
2022/01/24 06:43:56;;;;;;;20.93;18.27;;;;;;;5.48;96.81;103364.25;5051258;28;20984;-47
2022/01/24 06:46:24;;;;;;;19.13;17.33;;;;;;;5.50;96.70;103369.44;5051402;28;20433;-46
2022/01/24 06:48:51;;;;;;;17.70;15.83;;;;;;;5.53;96.75;103361.28;5051042;28;20456;-47
2022/01/24 06:51:20;;;;;;;17.70;16.07;;;;;;;5.51;96.89;103363.19;5051473;28;20952;-44
2022/01/24 06:53:48;;;;;;;21.30;17.83;;;;;;;5.52;96.70;103376.34;5051574;28;20431;-46
2022/01/24 06:56:20;;;;;;;17.27;15.80;;;;;;;5.50;97.04;103374.72;5051648;28;20431;-46
2022/01/24 06:58:48;;;;;;;17.50;15.87;;;;;;;5.52;96.95;103375.50;5050682;28;20918;-50
2022/01/24 07:01:18;;;;;;;18.00;16.30;;;;;;;5.49;96.60;103367.75;5051465;28;20824;-47
2022/01/24 07:03:46;;;;;;;17.60;15.80;;;;;;;5.51;97.06;103369.34;5051433;28;20932;-45
2022/01/24 07:06:13;;;;;;;18.77;17.07;;;;;;;5.50;96.88;103366.78;5051327;28;20925;-48
2022/01/24 07:08:41;;;;;;;18.70;16.90;;;;;;;5.51;97.15;103368.50;5050751;28;20475;-45
2022/01/24 07:11:09;;;;;;;18.10;16.23;;;;;;;5.51;96.91;103365.84;5051100;28;20497;-52
2022/01/24 07:13:36;;;;;;;18.30;16.37;;;;;;;5.46;97.13;103363.50;5051335;28;20438;-45
2022/01/24 07:16:06;;;;;;;21.40;17.77;;;;;;;5.48;97.33;103364.25;5051481;28;20439;-50
2022/01/24 07:21:21;;;;;;;17.53;15.83;;;;;;;5.45;96.92;103372.38;5051211;28;20531;-46
2022/01/24 07:23:49;;;;;;;21.30;16.73;;;;;;;5.49;97.09;103371.25;5050940;28;20475;-44
2022/01/24 07:26:17;;;;;;;19.73;18.03;;;;;;;5.49;97.15;103373.03;5051336;28;20454;-44
2022/01/24 07:28:45;;;;;;;19.03;17.43;;;;;;;5.45;97.05;103375.03;5050557;28;20471;-44
2022/01/24 07:31:13;;;;;;;17.47;15.37;;;;;;;5.49;96.88;103367.75;5051402;28;20944;-43
2022/01/24 07:33:42;;;;;;;22.97;16.73;;;;;;;5.48;97.45;103379.28;5051331;28;20459;-48
2022/01/24 07:36:10;;;;;;;18.80;16.90;;;;;;;5.48;97.45;103382.78;5051000;28;20434;-50
2022/01/24 07:38:37;;;;;;;17.57;16.17;;;;;;;5.50;96.91;103375.56;5050551;28;20463;-47
2022/01/24 07:41:06;;;;;;;17.27;15.80;;;;;;;5.50;97.21;103374.72;5051211;28;20429;-45
2022/01/24 07:43:34;;;;;;;18.37;16.60;;;;;;;5.46;97.13;103371.44;5050765;28;20995;-45
2022/01/24 07:46:02;;;;;;;17.87;16.37;;;;;;;5.48;97.28;103366.03;5050951;28;20435;-45
2022/01/24 07:48:29;;;;;;;16.70;15.17;;;;;;;5.47;96.63;103359.88;5051985;28;20459;-48
2022/01/24 07:50:58;;;;;;;18.00;16.30;;;;;;;5.50;96.65;103357.03;5054611;28;20442;-46
2022/01/24 07:53:26;;;;;;;19.10;17.30;;;;;;;5.53;97.11;103361.28;5054327;28;20470;-45
2022/01/24 07:56:13;;;;;;;18.73;17.23;;;;;;;5.50;97.07;103364.13;5054627;28;20435;-49
2022/01/24 07:58:43;;;;;;;18.80;17.03;;;;;;;5.51;96.88;103363.19;5054113;28;20805;-49
2022/01/24 08:01:11;;;;;;;18.40;16.50;;;;;;;5.51;97.10;103366.69;5054039;28;20467;-45
2022/01/24 08:03:38;;;;;;;18.27;16.80;;;;;;;5.51;96.86;103361.41;5054248;28;20442;-45
2022/01/24 08:06:08;;;;;;;17.90;16.27;;;;;;;5.53;96.77;103358.63;5054356;28;20434;-46
2022/01/24 08:08:35;;;;;;;20.90;18.80;;;;;;;5.51;96.70;103358.75;5053657;28;20553;-44
2022/01/24 08:11:03;;;;;;;19.13;17.53;;;;;;;5.51;96.27;103360.53;5054213;28;20557;-44
2022/01/24 08:13:31;;;;;;;18.90;17.03;;;;;;;5.47;97.22;103365.19;5054113;28;20454;-46
2022/01/24 08:15:59;;;;;;;19.27;17.60;;;;;;;5.44;96.67;103372.47;5053971;28;20427;-44
2022/01/24 08:18:26;;;;;;;24.90;22.27;;;;;;;5.48;96.92;103374.84;5053610;28;20835;-48
2022/01/24 08:20:54;;;;;;;21.97;19.80;;;;;;;5.49;97.00;103368.59;5054210;28;20530;-48
2022/01/24 08:23:23;;;;;;;20.17;18.33;;;;;;;5.51;96.54;103371.13;5053945;28;20462;-50
2022/01/24 08:25:54;;;;;;;19.03;17.30;;;;;;;5.44;96.61;103364.53;5053891;28;20554;-48
2022/01/24 08:28:22;;;;;;;19.47;17.70;;;;;;;5.45;96.43;103371.53;5053031;28;20455;-46
2022/01/24 08:30:51;;;;;;;19.50;17.70;;;;;;;5.46;96.81;103370.59;5053796;28;20445;-47
2022/01/24 08:33:20;;;;;;;20.70;18.90;;;;;;;5.46;96.44;103368.81;5053805;28;20470;-45
2022/01/24 08:35:47;;;;;;;20.60;18.60;;;;;;;5.49;96.50;103376.53;5053771;28;20776;-48
2022/01/24 08:38:15;;;;;;;21.03;18.90;;;;;;;5.53;96.38;103374.53;5052888;28;20459;-44
2022/01/24 08:40:47;;;;;;;20.73;18.60;;;;;;;5.53;96.10;103379.81;5053531;28;20442;-45
2022/01/24 08:43:22;;;;;;;23.83;21.20;;;;;;;5.56;96.15;103379.63;5053545;28;20459;-46
2022/01/24 08:45:53;;;;;;;23.47;20.97;;;;;;;5.55;95.67;103376.13;5053543;28;20467;-45
2022/01/24 08:48:22;;;;;;;25.30;21.80;;;;;;;5.54;95.93;103377.09;5052982;28;20470;-49
2022/01/24 08:50:52;;;;;;;24.20;20.73;;;;;;;5.55;96.14;103377.94;5053374;28;20929;-45
2022/01/24 08:53:25;;;;;;;23.77;21.37;;;;;;;5.60;96.14;103378.47;5053249;28;20985;-45
2022/01/24 08:55:54;;;;;;;26.23;22.20;;;;;;;5.61;95.85;103377.53;5053509;28;20868;-44
2022/01/24 08:58:24;;;;;;;25.80;20.83;;;;;;;5.61;95.90;103377.53;5052496;28;20749;-45
2022/01/24 09:00:52;;;;;;;25.07;21.00;;;;;;;5.67;96.36;103368.34;5053274;28;20431;-47
2022/01/24 09:03:20;;;;;;;23.77;21.40;;;;;;;5.67;96.24;103368.34;5053176;28;20455;-47
2022/01/24 09:05:49;;;;;;;24.20;21.90;;;;;;;5.70;95.67;103368.13;5052946;28;20471;-48
2022/01/24 09:08:17;;;;;;;24.10;21.77;;;;;;;5.69;96.05;103363.78;5052741;28;20462;-45
2022/01/24 09:10:47;;;;;;;25.43;22.37;;;;;;;5.66;95.28;103359.53;5053184;28;20786;-46
2022/01/24 09:13:16;;;;;;;25.00;22.30;;;;;;;5.63;95.32;103362.41;5053019;28;20451;-47
2022/01/24 09:15:43;;;;;;;26.70;23.80;;;;;;;5.62;95.54;103371.28;5053011;28;20805;-46
2022/01/24 09:18:11;;;;;;;24.87;21.97;;;;;;;5.62;95.32;103373.06;5052112;28;20466;-50
2022/01/24 09:20:39;;;;;;;25.57;23.00;;;;;;;5.66;96.09;103385.16;5052851;28;20431;-46
2022/01/24 09:23:07;;;;;;;25.83;22.07;;;;;;;5.66;95.96;103375.44;5052898;28;20482;-46
2022/01/24 09:25:35;;;;;;;24.20;21.60;;;;;;;5.68;95.53;103377.97;5052817;28;20475;-46
2022/01/24 09:28:04;;;;;;;26.47;23.50;;;;;;;5.66;96.02;103364.84;5052189;28;20428;-48
2022/01/24 09:30:33;;;;;;;27.33;22.70;;;;;;;5.64;95.21;103366.75;5052679;28;20431;-44
2022/01/24 09:33:01;;;;;;;27.57;24.77;;;;;;;5.66;95.47;103363.97;5052477;28;20451;-49
2022/01/24 09:35:29;;;;;;;29.33;23.37;;;;;;;5.66;95.40;103366.63;5052678;28;20995;-45
2022/01/24 09:37:56;;;;;;;27.23;24.30;;;;;;;5.67;95.12;103376.28;5052029;28;20431;-46
2022/01/24 09:40:25;;;;;;;29.00;24.70;;;;;;;5.65;95.34;103376.38;5052547;28;20427;-50
2022/01/24 09:42:53;;;;;;;27.20;24.43;;;;;;;5.69;95.19;103369.06;5052500;28;20451;-49
2022/01/24 09:45:21;;;;;;;28.33;25.00;;;;;;;5.71;95.10;103369.81;5052095;28;20984;-50
2022/01/24 09:47:52;;;;;;;28.50;25.40;;;;;;;5.70;95.41;103358.41;5051741;28;20458;-47
2022/01/24 09:50:21;;;;;;;27.27;23.97;;;;;;;5.75;95.61;103361.59;5052443;28;20435;-45
2022/01/24 09:52:49;;;;;;;28.20;23.67;;;;;;;5.80;95.29;103355.97;5052409;28;20469;-46
2022/01/24 09:55:19;;;;;;;30.20;24.60;;;;;;;5.80;94.94;103358.63;5052264;28;20427;-43
2022/01/24 09:57:48;;;;;;;28.20;25.33;;;;;;;5.80;95.76;103359.47;5051501;28;21064;-48
2022/01/24 10:00:19;;;;;;;26.40;23.80;;;;;;;5.80;95.37;103358.63;5052194;28;20435;-44
2022/01/24 10:02:49;;;;;;;24.53;21.90;;;;;;;5.83;95.23;103358.41;5051890;28;20469;-48
2022/01/24 10:05:22;;;;;;;24.20;21.70;;;;;;;5.83;95.55;103364.56;5052099;28;20558;-50
2022/01/24 10:07:53;;;;;;;33.80;25.17;;;;;;;5.78;94.70;103364.03;5051292;28;20940;-45
2022/01/24 10:10:32;;;;;;;26.20;23.70;;;;;;;5.81;95.36;103361.19;5051248;28;20424;-47
2022/01/24 10:16:28;;;;;;;26.30;23.63;;;;;;;5.82;94.84;103356.75;5051990;28;20434;-47
2022/01/24 10:19:14;;;;;;;26.70;23.87;;;;;;;5.81;94.42;103357.69;5051222;28;20463;-44
2022/01/24 10:22:03;;;;;;;26.67;24.00;;;;;;;5.81;95.00;103353.22;5051870;28;20447;-50
2022/01/24 10:24:34;;;;;;;28.20;24.93;;;;;;;5.80;94.44;103359.47;5051825;28;20427;-48
2022/01/24 10:27:23;;;;;;;25.57;23.13;;;;;;;5.81;94.97;103357.69;5051543;28;20502;-45
2022/01/24 10:29:54;;;;;;;28.10;23.37;;;;;;;5.75;95.17;103353.66;5051369;28;20465;-46
2022/01/24 10:32:38;;;;;;;26.00;23.10;;;;;;;5.75;94.22;103358.94;5051603;28;20462;-47
2022/01/24 10:35:26;;;;;;;27.57;24.67;;;;;;;5.74;94.33;103351.06;5051605;28;20801;-45
2022/01/24 10:38:22;;;;;;;25.73;23.00;;;;;;;5.72;94.41;103360.94;5051245;28;20438;-50
2022/01/24 10:40:53;;;;;;;25.97;23.47;;;;;;;5.72;94.46;103347.69;5051772;28;20428;-45
2022/01/24 10:43:23;;;;;;;28.77;22.73;;;;;;;5.72;94.09;103351.19;5051612;28;20465;-50
2022/01/24 10:45:53;;;;;;;24.77;22.43;;;;;;;5.73;93.69;103350.25;5051335;28;20550;-45
2022/01/24 10:48:23;;;;;;;25.90;23.20;;;;;;;5.72;93.96;103358.28;5051209;28;21035;-43
2022/01/24 10:51:04;;;;;;;25.50;22.47;;;;;;;5.73;93.79;103352.06;5051704;28;20424;-43
2022/01/24 10:53:39;;;;;;;31.50;22.33;;;;;;;5.74;93.52;103346.63;5051514;28;20460;-47
2022/01/24 10:56:26;;;;;;;25.27;22.63;;;;;;;5.71;93.43;103346.84;5051599;28;20427;-44
2022/01/24 10:58:58;;;;;;;25.10;22.53;;;;;;;5.69;93.69;103340.81;5050931;28;20806;-46
2022/01/24 11:01:28;;;;;;;26.63;22.90;;;;;;;5.67;93.12;103342.72;5051509;28;20450;-46
2022/01/24 11:04:01;;;;;;;26.03;23.17;;;;;;;5.64;93.27;103337.63;5051671;28;20454;-46
2022/01/24 11:06:30;;;;;;;26.53;23.77;;;;;;;5.64;93.99;103337.63;5051369;28;20787;-47
2022/01/24 11:09:21;;;;;;;23.90;21.50;;;;;;;5.61;94.09;103336.97;5050544;28;20534;-47
2022/01/24 11:11:50;;;;;;;25.40;22.97;;;;;;;5.58;94.14;103338.84;5051395;28;20458;-47
2022/01/24 11:14:20;;;;;;;27.43;24.43;;;;;;;5.54;93.94;103333.88;5051667;28;20435;-47
2022/01/24 11:16:49;;;;;;;25.23;22.50;;;;;;;5.60;94.34;103333.47;5051228;28;20546;-48
2022/01/24 11:19:26;;;;;;;26.60;23.00;;;;;;;5.52;93.71;103334.00;5050315;28;20525;-49
2022/01/24 11:21:54;;;;;;;25.80;23.20;;;;;;;5.55;94.06;103333.75;5051967;28;20457;-49
2022/01/24 11:24:30;;;;;;;28.60;24.20;;;;;;;5.54;94.11;103326.78;5055111;28;20443;-48
2022/01/24 11:26:58;;;;;;;27.90;25.00;;;;;;;5.54;94.03;103328.59;5055052;28;20869;-49
2022/01/24 11:29:27;;;;;;;26.97;24.03;;;;;;;5.55;94.07;103320.53;5054344;28;20467;-44
2022/01/24 11:32:07;;;;;;;29.23;26.13;;;;;;;5.46;93.88;103317.66;5054961;28;20451;-45
2022/01/24 11:34:37;;;;;;;28.17;24.77;;;;;;;5.48;94.08;103310.47;5054902;28;20439;-50
2022/01/24 11:37:05;;;;;;;28.43;25.47;;;;;;;5.45;94.02;103313.31;5054877;28;20432;-44
2022/01/24 11:39:36;;;;;;;27.90;24.90;;;;;;;5.46;94.48;103317.66;5054215;28;20467;-45
2022/01/24 11:42:04;;;;;;;29.00;25.97;;;;;;;5.47;94.50;103309.59;5054588;28;20526;-47
2022/01/24 11:44:59;;;;;;;29.70;26.50;;;;;;;5.44;94.94;103308.97;5054789;28;20439;-43
2022/01/24 11:47:27;;;;;;;31.87;28.47;;;;;;;5.39;94.84;103300.47;5029524;28;20491;-47
2022/01/24 11:49:55;;;;;;;30.83;27.20;;;;;;;5.43;95.57;103304.63;5043112;28;20498;-46
2022/01/24 11:52:31;;;;;;;33.77;26.57;;;;;;;5.49;95.47;103306.88;5054319;28;20451;-43
2022/01/24 11:55:16;;;;;;;30.37;26.90;;;;;;;5.46;94.85;103307.06;5054814;28;20446;-49
2022/01/24 11:57:47;;;;;;;31.60;26.63;;;;;;;5.45;95.06;103308.03;5054224;28;20477;-47
2022/01/24 12:00:26;;;;;;;30.07;26.70;;;;;;;5.38;95.16;103301.41;5054246;28;20937;-45
2022/01/24 12:02:57;;;;;;;30.70;27.40;;;;;;;5.36;95.25;103293.59;5054027;28;20521;-47
2022/01/24 12:05:28;;;;;;;30.07;26.90;;;;;;;5.44;95.26;103304.50;5054470;28;21007;-42
2022/01/24 12:07:58;;;;;;;28.87;25.77;;;;;;;5.45;95.26;103297.44;5053686;28;20493;-46
2022/01/24 12:10:43;;;;;;;30.70;27.37;;;;;;;5.44;94.87;103299.22;5054150;28;20427;-47
2022/01/24 12:13:20;;;;;;;35.00;29.30;;;;;;;5.42;94.93;103284.41;5054834;28;20463;-49
2022/01/24 12:15:57;;;;;;;33.13;28.23;;;;;;;5.43;94.66;103286.97;5054293;28;20488;-43
2022/01/24 12:18:50;;;;;;;32.43;28.90;;;;;;;5.44;94.95;103288.63;5053498;28;20554;-45
2022/01/24 12:21:24;;;;;;;35.93;29.97;;;;;;;5.43;95.54;103288.75;5053860;28;20431;-46
2022/01/24 12:23:53;;;;;;;33.20;28.30;;;;;;;5.45;95.10;103294.78;5053843;28;20450;-45
2022/01/24 12:26:43;;;;;;;40.10;29.10;;;;;;;5.44;95.24;103299.22;5053992;28;20581;-45
2022/01/24 12:29:14;;;;;;;35.27;29.37;;;;;;;5.46;94.90;103297.34;5053295;28;20463;-43
2022/01/24 12:31:45;;;;;;;36.67;29.40;;;;;;;5.50;95.41;103295.31;5053787;28;20453;-44
2022/01/24 12:34:25;;;;;;;42.83;30.90;;;;;;;5.52;95.82;103291.66;5052877;28;20439;-45
2022/01/24 12:37:03;;;;;;;38.67;30.70;;;;;;;5.52;95.00;103288.16;5053947;28;20431;-42
2022/01/24 12:39:45;;;;;;;44.60;34.10;;;;;;;5.53;95.69;103289.81;5053145;28;20463;-48
2022/01/24 12:42:21;;;;;;;40.03;32.47;;;;;;;5.58;95.42;103291.22;5053562;28;20501;-45
2022/01/24 12:47:37;;;;;;;39.30;31.67;;;;;;;5.62;95.24;103286.56;5053463;28;20479;-47
2022/01/24 12:50:07;;;;;;;41.47;34.10;;;;;;;5.59;95.03;103290.28;5053102;28;20463;-45
2022/01/24 12:52:35;;;;;;;40.70;34.17;;;;;;;5.57;94.82;103294.81;5053372;28;20448;-43
2022/01/24 12:55:08;;;;;;;44.23;33.57;;;;;;;5.62;95.17;103277.78;5053533;28;20540;-44